Gabriella — OJHP — position and weather

sailwx.info

Track history (hours):
 
Tides and Currents Weather Stations Pressure Air Temp Water Temp Dewpoint Dewpoint Depression Visibility Wind Speed Wind Dir Waves Ship Positions

Gabriella

Last reported at 2017-Oct-20 03:30 UTC. Time now 2017-Oct-20 03:49 UTC.
Position N 59°45' E 019°16'.

Length 172 m; draft 6.5 m.

Type: Passenger vessel. MMSI: 230361000.

Date/timePositionNaut miles runAvg speedWind from/ knotsBaromVisibWave heightAir tempDewpointWater temp
2017-Oct-20 03:30N 59°45' E 019°16'816.4
2017-Oct-20 03:00N 59°50' E 019°29'816.7
2017-Oct-20 02:30N 59°56' E 019°41'9 6.3
2017-Oct-20 01:01N 60°03' E 019°53'116.2
2017-Oct-20 00:56N 60°01' E 019°54'4216.2
2017-Oct-19 22:22N 59°38' E 021°02'617.4
2017-Oct-19 22:00N 59°36' E 021°14'917.4
2017-Oct-19 21:31N 59°34' E 021°31'1417.4
2017-Oct-19 20:43N 59°32' E 021°58'617.6
2017-Oct-19 20:22N 59°33' E 022°10'2917.5
2017-Oct-19 18:42N 59°39' E 023°06'317.5
2017-Oct-19 18:31N 59°39' E 023°13'917.4
2017-Oct-19 18:00N 59°41' E 023°30'917.4
2017-Oct-19 17:30N 59°43' E 023°46'917.4
2017-Oct-19 17:00N 59°45' E 024°03'917.4
2017-Oct-19 16:31N 59°47' E 024°20'816.8
2017-Oct-19 16:00N 59°51' E 024°34'22 4.6
2017-Oct-19 11:16N 60°10' E 024°58'0 0.0
2017-Oct-19 11:01N 60°10' E 024°58'0 0.0
2017-Oct-19 10:28N 60°10' E 024°58'0 0.0
2017-Oct-19 10:01N 60°10' E 024°58'0 0.0
2017-Oct-19 09:28N 60°10' E 024°58'0 0.0
2017-Oct-19 08:58N 60°10' E 024°58'0 0.0
2017-Oct-19 08:31N 60°10' E 024°58'0 0.0
2017-Oct-19 07:58N 60°10' E 024°58'0 0.0
2017-Oct-19 07:28N 60°10' E 024°58'0 0.4
2017-Oct-19 07:00N 60°10' E 024°58'813.8
2017-Oct-19 06:26N 60°02' E 024°56'1617.7
2017-Oct-19 05:32N 59°52' E 024°31'218.3
2017-Oct-19 05:25N 59°51' E 024°27'718.0
2017-Oct-19 05:01N 59°49' E 024°13'918.2
2017-Oct-19 04:30N 59°46' E 023°56'918.2
2017-Oct-19 04:00N 59°44' E 023°38'918.2
2017-Oct-19 03:31N 59°42' E 023°21'1018.2
2017-Oct-19 02:57N 59°39' E 023°02'2418.1
2017-Oct-19 01:38N 59°34' E 022°16'318.2
2017-Oct-19 01:30N 59°34' E 022°10'918.1
2017-Oct-19 01:01N 59°32' E 021°53'918.2
2017-Oct-19 00:31N 59°33' E 021°36'918.2
2017-Oct-19 00:00N 59°34' E 021°18'1118.2
2017-Oct-18 23:25N 59°37' E 020°57'4112.0
2017-Oct-18 19:59N 59°60' E 019°49'818.1
2017-Oct-18 19:30N 59°54' E 019°37'918.1
2017-Oct-18 19:00N 59°47' E 019°25'917.9
2017-Oct-18 18:30N 59°44' E 019°09'815.5
2017-Oct-18 17:59N 59°39' E 018°55'511.3
2017-Oct-18 17:30N 59°36' E 018°46'711.2
2017-Oct-18 16:51N 59°32' E 018°34'410.1
2017-Oct-18 16:27N 59°30' E 018°28'510.8
2017-Oct-18 16:01N 59°25' E 018°24'3 6.8
2017-Oct-18 15:30N 59°22' E 018°24'510.5
2017-Oct-18 15:01N 59°21' E 018°14'5 4.5
2017-Oct-18 14:00N 59°19' E 018°06'0 0.0
2017-Oct-18 13:30N 59°19' E 018°06'0 0.0
2017-Oct-18 13:00N 59°19' E 018°06'0 0.0
2017-Oct-18 12:30N 59°19' E 018°06'0 0.0
2017-Oct-18 12:00N 59°19' E 018°06'0 0.0
2017-Oct-18 11:30N 59°19' E 018°06'0 0.0
2017-Oct-18 11:00N 59°19' E 018°06'0 0.0
2017-Oct-18 10:30N 59°19' E 018°06'0 0.0
2017-Oct-18 10:00N 59°19' E 018°06'0 0.0
2017-Oct-18 09:30N 59°19' E 018°06'0 0.0
2017-Oct-18 09:00N 59°19' E 018°06'0 0.0
2017-Oct-18 08:30N 59°19' E 018°06'0 0.0
2017-Oct-18 08:00N 59°19' E 018°06'2 3.9
2017-Oct-18 07:30N 59°19' E 018°10'611.7
2017-Oct-18 07:00N 59°23' E 018°19'4 7.4
2017-Oct-18 06:29N 59°23' E 018°27'4 9.2
2017-Oct-18 06:00N 59°27' E 018°26'710.8
2017-Oct-18 05:23N 59°32' E 018°34'410.8
2017-Oct-18 05:00N 59°35' E 018°41'612.2
2017-Oct-18 04:30N 59°38' E 018°51'611.7
2017-Oct-18 04:00N 59°41' E 019°00'815.3
2017-Oct-18 03:30N 59°45' E 019°14'815.1
2017-Oct-18 03:00N 59°49' E 019°27'815.4
2017-Oct-18 02:29N 59°55' E 019°37'4510.5
2017-Oct-17 22:13N 59°38' E 021°01'316.6
2017-Oct-17 22:00N 59°37' E 021°07'816.5
2017-Oct-17 21:30N 59°35' E 021°23'816.5
2017-Oct-17 21:01N 59°33' E 021°39'816.4
2017-Oct-17 20:31N 59°32' E 021°55'3318.0
2017-Oct-17 18:40N 59°39' E 022°59'318.1
2017-Oct-17 18:30N 59°39' E 023°05'918.1
2017-Oct-17 18:00N 59°41' E 023°22'918.2
2017-Oct-17 17:30N 59°44' E 023°40'918.3
2017-Oct-17 17:00N 59°46' E 023°57'918.2
2017-Oct-17 16:30N 59°48' E 024°15'918.0
2017-Oct-17 16:00N 59°52' E 024°31'1 0.1
2017-Oct-17 05:36N 59°53' E 024°33'218.1
2017-Oct-17 05:30N 59°52' E 024°30'917.9
2017-Oct-17 05:01N 59°49' E 024°14'918.1
2017-Oct-17 04:30N 59°46' E 023°56'918.1
2017-Oct-17 04:00N 59°44' E 023°39'918.1
2017-Oct-17 03:30N 59°42' E 023°21'918.1
2017-Oct-17 03:00N 59°40' E 023°04'1018.2
2017-Oct-17 02:29N 59°38' E 022°45'918.2
2017-Oct-17 01:59N 59°36' E 022°28'918.2
2017-Oct-17 01:30N 59°34' E 022°11'918.2
2017-Oct-17 01:00N 59°32' E 021°54'918.2
2017-Oct-17 00:31N 59°33' E 021°36'918.4
2017-Oct-17 00:01N 59°35' E 021°18'1018.2
2017-Oct-16 23:27N 59°37' E 020°58'4214.1
2017-Oct-16 20:27N 60°05' E 019°56'714.4
2017-Oct-16 19:59N 59°60' E 019°48'816.6
2017-Oct-16 19:30N 59°54' E 019°37'816.1
2017-Oct-16 19:00N 59°48' E 019°26'816.2
2017-Oct-16 18:31N 59°44' E 019°13'816.4
2017-Oct-16 18:00N 59°41' E 018°58'611.5
2017-Oct-16 17:30N 59°37' E 018°49'712.1
2017-Oct-16 16:57N 59°34' E 018°38'610.0
2017-Oct-16 16:19N 59°30' E 018°28'411.9
2017-Oct-16 16:00N 59°26' E 018°24'510.2
2017-Oct-16 15:31N 59°22' E 018°27'510.8
2017-Oct-16 15:01N 59°22' E 018°16'6 5.4
2017-Oct-16 13:56N 59°19' E 018°06'0 0.0
2017-Oct-16 13:29N 59°19' E 018°06'0 0.0
2017-Oct-16 12:59N 59°19' E 018°06'0 0.0
2017-Oct-16 12:26N 59°19' E 018°06'0 0.0
2017-Oct-16 11:59N 59°19' E 018°06'0 0.0
2017-Oct-16 11:26N 59°19' E 018°06'0 0.0
2017-Oct-16 10:59N 59°19' E 018°06'0 0.0
2017-Oct-16 10:29N 59°19' E 018°06'0 0.0
2017-Oct-16 09:59N 59°19' E 018°06'0 0.0
2017-Oct-16 09:29N 59°19' E 018°06'0 0.0
2017-Oct-16 08:59N 59°19' E 018°06'0 0.0
2017-Oct-16 08:29N 59°19' E 018°06'0 0.0
2017-Oct-16 08:01N 59°19' E 018°06'2 4.7
2017-Oct-16 07:30N 59°19' E 018°10'611.7
2017-Oct-16 07:00N 59°23' E 018°20'3 6.9
2017-Oct-16 06:30N 59°24' E 018°27'4 8.6
2017-Oct-16 06:00N 59°28' E 018°26'610.1
2017-Oct-16 05:23N 59°32' E 018°34'410.8
2017-Oct-16 05:00N 59°35' E 018°41'612.1
2017-Oct-16 04:30N 59°38' E 018°51'611.5
2017-Oct-16 04:01N 59°41' E 019°00'714.9
2017-Oct-16 03:31N 59°45' E 019°14'814.9
2017-Oct-16 02:59N 59°49' E 019°27'815.2
2017-Oct-16 02:29N 59°54' E 019°37'4510.9
2017-Oct-15 22:24N 59°38' E 021°00'717.2
2017-Oct-15 22:01N 59°36' E 021°13'917.2
2017-Oct-15 21:30N 59°34' E 021°30'917.2
2017-Oct-15 20:59N 59°32' E 021°47'817.2
2017-Oct-15 20:30N 59°33' E 022°03'2017.3
2017-Oct-15 19:21N 59°37' E 022°42'1217.3
2017-Oct-15 18:41N 59°40' E 023°04'317.3
2017-Oct-15 18:30N 59°40' E 023°11'817.3
2017-Oct-15 18:00N 59°42' E 023°27'917.3
2017-Oct-15 17:30N 59°44' E 023°43'917.3
2017-Oct-15 17:00N 59°47' E 023°60'917.3
2017-Oct-15 16:30N 59°50' E 024°16'917.3
2017-Oct-15 15:59N 59°53' E 024°33'917.3
2017-Oct-15 15:28N 59°57' E 024°48'11 1.1
2017-Oct-15 05:30N 59°51' E 024°30'918.3
2017-Oct-15 05:00N 59°48' E 024°13'918.3
2017-Oct-15 04:31N 59°46' E 023°56'918.3
2017-Oct-15 04:00N 59°44' E 023°38'918.3
2017-Oct-15 03:31N 59°41' E 023°20'918.3
2017-Oct-15 03:01N 59°39' E 023°03'918.2
2017-Oct-15 02:30N 59°37' E 022°45'1118.2
2017-Oct-15 01:54N 59°35' E 022°24'718.2
2017-Oct-15 01:30N 59°34' E 022°09'918.2
2017-Oct-15 01:00N 59°32' E 021°52'917.8
2017-Oct-15 00:30N 59°33' E 021°35'918.2
2017-Oct-15 00:00N 59°35' E 021°17'1018.2
2017-Oct-14 23:28N 59°37' E 020°58'4213.7
2017-Oct-14 20:23N 60°05' E 019°56'615.6
2017-Oct-14 20:00N 59°60' E 019°49'917.8
2017-Oct-14 19:29N 59°53' E 019°36'917.8
2017-Oct-14 19:00N 59°47' E 019°24'917.4
2017-Oct-14 18:30N 59°44' E 019°09'815.6
2017-Oct-14 18:00N 59°39' E 018°55'611.0
2017-Oct-14 17:30N 59°36' E 018°47'811.3
2017-Oct-14 16:50N 59°32' E 018°34'410.1
2017-Oct-14 16:25N 59°30' E 018°28'510.8
2017-Oct-14 16:00N 59°25' E 018°24'4 7.2
2017-Oct-14 15:30N 59°22' E 018°24'510.7
2017-Oct-14 15:00N 59°21' E 018°14'4 8.8
2017-Oct-14 14:30N 59°19' E 018°06'0 0.0
2017-Oct-14 14:00N 59°19' E 018°06'0 0.0
2017-Oct-14 13:30N 59°19' E 018°06'0 0.0
2017-Oct-14 13:00N 59°19' E 018°06'0 0.0
2017-Oct-14 12:30N 59°19' E 018°06'0 0.0
2017-Oct-14 12:00N 59°19' E 018°06'0 0.0
2017-Oct-14 11:30N 59°19' E 018°06'0 0.0
2017-Oct-14 11:00N 59°19' E 018°06'0 0.0
2017-Oct-14 10:30N 59°19' E 018°06'0 0.0
2017-Oct-14 10:00N 59°19' E 018°06'0 0.0
2017-Oct-14 09:30N 59°19' E 018°06'0 0.0
2017-Oct-14 08:57N 59°19' E 018°06'0 0.0
2017-Oct-14 08:30N 59°19' E 018°06'0 0.0
2017-Oct-14 08:00N 59°19' E 018°06'2 4.9
2017-Oct-14 07:30N 59°19' E 018°11'611.5
2017-Oct-14 07:00N 59°23' E 018°20'3 6.7
2017-Oct-14 06:30N 59°23' E 018°27'5 9.2
2017-Oct-14 06:00N 59°27' E 018°26'710.9
2017-Oct-14 05:24N 59°32' E 018°34'410.8
2017-Oct-14 05:00N 59°35' E 018°42'612.2
2017-Oct-14 04:30N 59°38' E 018°52'611.8
2017-Oct-14 04:00N 59°42' E 019°01'715.0
2017-Oct-14 03:30N 59°45' E 019°14'815.0
2017-Oct-14 03:00N 59°49' E 019°27'915.2
2017-Oct-14 02:25N 59°55' E 019°39'4511.1
2017-Oct-13 22:21N 59°38' E 021°02'617.2
2017-Oct-13 22:01N 59°36' E 021°13'917.2
2017-Oct-13 21:30N 59°34' E 021°30'1217.2
2017-Oct-13 20:48N 59°32' E 021°54'817.3
2017-Oct-13 20:19N 59°33' E 022°09'3117.2
2017-Oct-13 18:32N 59°40' E 023°09'117.2
2017-Oct-13 18:30N 59°40' E 023°10'917.3
2017-Oct-13 18:01N 59°42' E 023°26'917.2
2017-Oct-13 17:31N 59°44' E 023°43'917.2
2017-Oct-13 17:00N 59°47' E 023°59'1017.2
2017-Oct-13 16:26N 59°50' E 024°18'817.2
2017-Oct-13 15:57N 59°53' E 024°33'3 0.3
2017-Oct-13 05:26N 59°51' E 024°28'818.2
2017-Oct-13 05:00N 59°48' E 024°14'918.3
2017-Oct-13 04:31N 59°46' E 023°56'918.3
2017-Oct-13 04:00N 59°44' E 023°38'918.3
2017-Oct-13 03:31N 59°42' E 023°21'1018.3
2017-Oct-13 02:59N 59°40' E 023°02'2418.1
2017-Oct-13 01:40N 59°35' E 022°16'318.1
2017-Oct-13 01:30N 59°34' E 022°11'918.2
2017-Oct-13 01:00N 59°32' E 021°53'918.2
2017-Oct-13 00:31N 59°33' E 021°35'918.2
2017-Oct-13 00:00N 59°35' E 021°18'1018.2
2017-Oct-12 23:28N 59°37' E 020°59'4311.6
2017-Oct-12 19:45N 59°57' E 019°43'417.3
2017-Oct-12 19:29N 59°54' E 019°37'816.7
2017-Oct-12 19:00N 59°48' E 019°25'816.7
2017-Oct-12 18:30N 59°44' E 019°11'816.7
2017-Oct-12 18:00N 59°40' E 018°56'510.9
2017-Oct-12 17:30N 59°37' E 018°48'612.0
2017-Oct-12 17:00N 59°34' E 018°37'610.1
2017-Oct-12 16:22N 59°30' E 018°28'411.7
2017-Oct-12 16:00N 59°26' E 018°23'4 8.4
2017-Oct-12 15:29N 59°22' E 018°25'510.5
2017-Oct-12 15:00N 59°21' E 018°15'510.0
2017-Oct-12 14:30N 59°19' E 018°06'0 0.2
2017-Oct-12 14:00N 59°19' E 018°06'0 0.0
2017-Oct-12 13:30N 59°19' E 018°06'0 0.0
2017-Oct-12 12:57N 59°19' E 018°06'0 0.0
2017-Oct-12 12:27N 59°19' E 018°06'0 0.0
2017-Oct-12 12:01N 59°19' E 018°06'0 0.0
2017-Oct-12 11:31N 59°19' E 018°06'0 0.0
2017-Oct-12 11:01N 59°19' E 018°06'0 0.0
2017-Oct-12 10:31N 59°19' E 018°06'0 0.0
2017-Oct-12 10:00N 59°19' E 018°06'0 0.0
2017-Oct-12 09:30N 59°19' E 018°06'0 0.0
2017-Oct-12 09:01N 59°19' E 018°06'0 0.0
2017-Oct-12 08:30N 59°19' E 018°06'0 0.0
2017-Oct-12 08:00N 59°19' E 018°06'3 5.1
2017-Oct-12 07:31N 59°20' E 018°11'611.5
2017-Oct-12 07:00N 59°23' E 018°21'3 6.5
2017-Oct-12 06:30N 59°24' E 018°27'4 8.6
2017-Oct-12 06:00N 59°28' E 018°26'610.2
2017-Oct-12 05:26N 59°32' E 018°34'410.5
2017-Oct-12 05:00N 59°35' E 018°42'612.2
2017-Oct-12 04:30N 59°38' E 018°52'611.7
2017-Oct-12 04:00N 59°42' E 019°01'815.1
2017-Oct-12 03:30N 59°45' E 019°15'714.9
2017-Oct-12 03:00N 59°49' E 019°27'815.2
2017-Oct-12 02:30N 59°54' E 019°38'4710.9
2017-Oct-11 22:15N 59°38' E 021°04'417.1
2017-Oct-11 22:00N 59°37' E 021°13'917.1
2017-Oct-11 21:30N 59°35' E 021°29'917.1
2017-Oct-11 20:59N 59°34' E 021°47'1117.3
2017-Oct-11 20:23N 59°33' E 022°07'3217.3
2017-Oct-11 18:32N 59°40' E 023°09'017.2
2017-Oct-11 18:30N 59°40' E 023°10'917.3
2017-Oct-11 18:00N 59°42' E 023°27'917.3
2017-Oct-11 17:30N 59°44' E 023°43'917.3
2017-Oct-11 17:00N 59°47' E 023°60'83 4.9
2017-Oct-11 00:01N 59°35' E 021°16'918.4
2017-Oct-10 23:30N 59°37' E 020°58'4112.5
2017-Oct-10 20:12N 60°02' E 019°53'316.7
2017-Oct-10 19:59N 59°60' E 019°48'816.8
2017-Oct-10 19:30N 59°54' E 019°37'816.8
2017-Oct-10 19:00N 59°48' E 019°25'816.6
2017-Oct-10 18:31N 59°44' E 019°11'816.5
2017-Oct-10 18:00N 59°40' E 018°56'510.5
2017-Oct-10 17:30N 59°37' E 018°48'611.9
2017-Oct-10 17:00N 59°34' E 018°38'710.1
2017-Oct-10 16:20N 59°30' E 018°28'412.0
2017-Oct-10 16:00N 59°26' E 018°23'510.1
2017-Oct-10 15:30N 59°21' E 018°26'510.0
2017-Oct-10 15:00N 59°22' E 018°17'6 6.1
2017-Oct-10 14:00N 59°19' E 018°06'0 0.0
2017-Oct-10 13:30N 59°19' E 018°06'0 0.0
2017-Oct-10 13:00N 59°19' E 018°06'0 0.0
2017-Oct-10 12:27N 59°19' E 018°06'0 0.0
2017-Oct-10 12:00N 59°19' E 018°06'0 0.0
2017-Oct-10 11:18N 59°19' E 018°06'0 0.0
2017-Oct-10 11:00N 59°19' E 018°06'0 0.0
2017-Oct-10 10:30N 59°19' E 018°06'0 0.0
2017-Oct-10 10:00N 59°19' E 018°06'0 0.0
2017-Oct-10 09:30N 59°19' E 018°06'0 0.0
2017-Oct-10 08:57N 59°19' E 018°06'0 0.0
2017-Oct-10 08:30N 59°19' E 018°06'0 0.0
2017-Oct-10 08:01N 59°19' E 018°06'3 6.3
2017-Oct-10 07:31N 59°20' E 018°12'611.4
2017-Oct-10 07:00N 59°22' E 018°22'3 5.4
2017-Oct-10 06:30N 59°24' E 018°27'4 8.5
2017-Oct-10 06:00N 59°28' E 018°26'610.5
2017-Oct-10 05:24N 59°33' E 018°35'410.8
2017-Oct-10 05:01N 59°35' E 018°42'612.1
2017-Oct-10 04:31N 59°38' E 018°52'510.9
2017-Oct-10 04:00N 59°41' E 019°01'815.5
2017-Oct-10 03:31N 59°45' E 019°14'  
Track history (hours):
 
Tides and Currents Weather Stations Pressure Air Temp Water Temp Dewpoint Dewpoint Depression Visibility Wind Speed Wind Dir Waves Ship Positions

Gabriella

Last reported at 2017-Oct-20 03:30 UTC. Time now 2017-Oct-20 03:49 UTC.
Position N 59°45' E 019°16'.

Length 172 m; draft 6.5 m.

Type: Passenger vessel. MMSI: 230361000.

Date/timePositionNaut miles runAvg speedWind from/ knotsBaromVisibWave heightAir tempDewpointWater temp
2017-Oct-20 03:30N 59°45' E 019°16'816.4
2017-Oct-20 03:00N 59°50' E 019°29'816.7
2017-Oct-20 02:30N 59°56' E 019°41'9 6.3
2017-Oct-20 01:01N 60°03' E 019°53'116.2
2017-Oct-20 00:56N 60°01' E 019°54'4216.2
2017-Oct-19 22:22N 59°38' E 021°02'617.4
2017-Oct-19 22:00N 59°36' E 021°14'917.4
2017-Oct-19 21:31N 59°34' E 021°31'1417.4
2017-Oct-19 20:43N 59°32' E 021°58'617.6
2017-Oct-19 20:22N 59°33' E 022°10'2917.5
2017-Oct-19 18:42N 59°39' E 023°06'317.5
2017-Oct-19 18:31N 59°39' E 023°13'917.4
2017-Oct-19 18:00N 59°41' E 023°30'917.4
2017-Oct-19 17:30N 59°43' E 023°46'917.4
2017-Oct-19 17:00N 59°45' E 024°03'917.4
2017-Oct-19 16:31N 59°47' E 024°20'816.8
2017-Oct-19 16:00N 59°51' E 024°34'22 4.6
2017-Oct-19 11:16N 60°10' E 024°58'0 0.0
2017-Oct-19 11:01N 60°10' E 024°58'0 0.0
2017-Oct-19 10:28N 60°10' E 024°58'0 0.0
2017-Oct-19 10:01N 60°10' E 024°58'0 0.0
2017-Oct-19 09:28N 60°10' E 024°58'0 0.0
2017-Oct-19 08:58N 60°10' E 024°58'0 0.0
2017-Oct-19 08:31N 60°10' E 024°58'0 0.0
2017-Oct-19 07:58N 60°10' E 024°58'0 0.0
2017-Oct-19 07:28N 60°10' E 024°58'0 0.4
2017-Oct-19 07:00N 60°10' E 024°58'813.8
2017-Oct-19 06:26N 60°02' E 024°56'1617.7
2017-Oct-19 05:32N 59°52' E 024°31'218.3
2017-Oct-19 05:25N 59°51' E 024°27'718.0
2017-Oct-19 05:01N 59°49' E 024°13'918.2
2017-Oct-19 04:30N 59°46' E 023°56'918.2
2017-Oct-19 04:00N 59°44' E 023°38'918.2
2017-Oct-19 03:31N 59°42' E 023°21'1018.2
2017-Oct-19 02:57N 59°39' E 023°02'2418.1
2017-Oct-19 01:38N 59°34' E 022°16'318.2
2017-Oct-19 01:30N 59°34' E 022°10'918.1
2017-Oct-19 01:01N 59°32' E 021°53'918.2
2017-Oct-19 00:31N 59°33' E 021°36'918.2
2017-Oct-19 00:00N 59°34' E 021°18'1118.2
2017-Oct-18 23:25N 59°37' E 020°57'4112.0
2017-Oct-18 19:59N 59°60' E 019°49'818.1
2017-Oct-18 19:30N 59°54' E 019°37'918.1
2017-Oct-18 19:00N 59°47' E 019°25'917.9
2017-Oct-18 18:30N 59°44' E 019°09'815.5
2017-Oct-18 17:59N 59°39' E 018°55'511.3
2017-Oct-18 17:30N 59°36' E 018°46'711.2
2017-Oct-18 16:51N 59°32' E 018°34'410.1
2017-Oct-18 16:27N 59°30' E 018°28'510.8
2017-Oct-18 16:01N 59°25' E 018°24'3 6.8
2017-Oct-18 15:30N 59°22' E 018°24'510.5
2017-Oct-18 15:01N 59°21' E 018°14'5 4.5
2017-Oct-18 14:00N 59°19' E 018°06'0 0.0
2017-Oct-18 13:30N 59°19' E 018°06'0 0.0
2017-Oct-18 13:00N 59°19' E 018°06'0 0.0
2017-Oct-18 12:30N 59°19' E 018°06'0 0.0
2017-Oct-18 12:00N 59°19' E 018°06'0 0.0
2017-Oct-18 11:30N 59°19' E 018°06'0 0.0
2017-Oct-18 11:00N 59°19' E 018°06'0 0.0
2017-Oct-18 10:30N 59°19' E 018°06'0 0.0
2017-Oct-18 10:00N 59°19' E 018°06'0 0.0
2017-Oct-18 09:30N 59°19' E 018°06'0 0.0
2017-Oct-18 09:00N 59°19' E 018°06'0 0.0
2017-Oct-18 08:30N 59°19' E 018°06'0 0.0
2017-Oct-18 08:00N 59°19' E 018°06'2 3.9
2017-Oct-18 07:30N 59°19' E 018°10'611.7
2017-Oct-18 07:00N 59°23' E 018°19'4 7.4
2017-Oct-18 06:29N 59°23' E 018°27'4 9.2
2017-Oct-18 06:00N 59°27' E 018°26'710.8
2017-Oct-18 05:23N 59°32' E 018°34'410.8
2017-Oct-18 05:00N 59°35' E 018°41'612.2
2017-Oct-18 04:30N 59°38' E 018°51'611.7
2017-Oct-18 04:00N 59°41' E 019°00'815.3
2017-Oct-18 03:30N 59°45' E 019°14'815.1
2017-Oct-18 03:00N 59°49' E 019°27'815.4
2017-Oct-18 02:29N 59°55' E 019°37'4510.5
2017-Oct-17 22:13N 59°38' E 021°01'316.6
2017-Oct-17 22:00N 59°37' E 021°07'816.5
2017-Oct-17 21:30N 59°35' E 021°23'816.5
2017-Oct-17 21:01N 59°33' E 021°39'816.4
2017-Oct-17 20:31N 59°32' E 021°55'3318.0
2017-Oct-17 18:40N 59°39' E 022°59'318.1
2017-Oct-17 18:30N 59°39' E 023°05'918.1
2017-Oct-17 18:00N 59°41' E 023°22'918.2
2017-Oct-17 17:30N 59°44' E 023°40'918.3
2017-Oct-17 17:00N 59°46' E 023°57'918.2
2017-Oct-17 16:30N 59°48' E 024°15'918.0
2017-Oct-17 16:00N 59°52' E 024°31'1 0.1
2017-Oct-17 05:36N 59°53' E 024°33'218.1
2017-Oct-17 05:30N 59°52' E 024°30'917.9
2017-Oct-17 05:01N 59°49' E 024°14'918.1
2017-Oct-17 04:30N 59°46' E 023°56'918.1
2017-Oct-17 04:00N 59°44' E 023°39'918.1
2017-Oct-17 03:30N 59°42' E 023°21'918.1
2017-Oct-17 03:00N 59°40' E 023°04'1018.2
2017-Oct-17 02:29N 59°38' E 022°45'918.2
2017-Oct-17 01:59N 59°36' E 022°28'918.2
2017-Oct-17 01:30N 59°34' E 022°11'918.2
2017-Oct-17 01:00N 59°32' E 021°54'918.2
2017-Oct-17 00:31N 59°33' E 021°36'918.4
2017-Oct-17 00:01N 59°35' E 021°18'1018.2
2017-Oct-16 23:27N 59°37' E 020°58'4214.1
2017-Oct-16 20:27N 60°05' E 019°56'714.4
2017-Oct-16 19:59N 59°60' E 019°48'816.6
2017-Oct-16 19:30N 59°54' E 019°37'816.1
2017-Oct-16 19:00N 59°48' E 019°26'816.2
2017-Oct-16 18:31N 59°44' E 019°13'816.4
2017-Oct-16 18:00N 59°41' E 018°58'611.5
2017-Oct-16 17:30N 59°37' E 018°49'712.1
2017-Oct-16 16:57N 59°34' E 018°38'610.0
2017-Oct-16 16:19N 59°30' E 018°28'411.9
2017-Oct-16 16:00N 59°26' E 018°24'510.2
2017-Oct-16 15:31N 59°22' E 018°27'510.8
2017-Oct-16 15:01N 59°22' E 018°16'6 5.4
2017-Oct-16 13:56N 59°19' E 018°06'0 0.0
2017-Oct-16 13:29N 59°19' E 018°06'0 0.0
2017-Oct-16 12:59N 59°19' E 018°06'0 0.0
2017-Oct-16 12:26N 59°19' E 018°06'0 0.0
2017-Oct-16 11:59N 59°19' E 018°06'0 0.0
2017-Oct-16 11:26N 59°19' E 018°06'0 0.0
2017-Oct-16 10:59N 59°19' E 018°06'0 0.0
2017-Oct-16 10:29N 59°19' E 018°06'0 0.0
2017-Oct-16 09:59N 59°19' E 018°06'0 0.0
2017-Oct-16 09:29N 59°19' E 018°06'0 0.0
2017-Oct-16 08:59N 59°19' E 018°06'0 0.0
2017-Oct-16 08:29N 59°19' E 018°06'0 0.0
2017-Oct-16 08:01N 59°19' E 018°06'2 4.7
2017-Oct-16 07:30N 59°19' E 018°10'611.7
2017-Oct-16 07:00N 59°23' E 018°20'3 6.9
2017-Oct-16 06:30N 59°24' E 018°27'4 8.6
2017-Oct-16 06:00N 59°28' E 018°26'610.1
2017-Oct-16 05:23N 59°32' E 018°34'410.8
2017-Oct-16 05:00N 59°35' E 018°41'612.1
2017-Oct-16 04:30N 59°38' E 018°51'611.5
2017-Oct-16 04:01N 59°41' E 019°00'714.9
2017-Oct-16 03:31N 59°45' E 019°14'814.9
2017-Oct-16 02:59N 59°49' E 019°27'815.2
2017-Oct-16 02:29N 59°54' E 019°37'4510.9
2017-Oct-15 22:24N 59°38' E 021°00'717.2
2017-Oct-15 22:01N 59°36' E 021°13'917.2
2017-Oct-15 21:30N 59°34' E 021°30'917.2
2017-Oct-15 20:59N 59°32' E 021°47'817.2
2017-Oct-15 20:30N 59°33' E 022°03'2017.3
2017-Oct-15 19:21N 59°37' E 022°42'1217.3
2017-Oct-15 18:41N 59°40' E 023°04'317.3
2017-Oct-15 18:30N 59°40' E 023°11'817.3
2017-Oct-15 18:00N 59°42' E 023°27'917.3
2017-Oct-15 17:30N 59°44' E 023°43'917.3
2017-Oct-15 17:00N 59°47' E 023°60'917.3
2017-Oct-15 16:30N 59°50' E 024°16'917.3
2017-Oct-15 15:59N 59°53' E 024°33'917.3
2017-Oct-15 15:28N 59°57' E 024°48'11 1.1
2017-Oct-15 05:30N 59°51' E 024°30'918.3
2017-Oct-15 05:00N 59°48' E 024°13'918.3
2017-Oct-15 04:31N 59°46' E 023°56'918.3
2017-Oct-15 04:00N 59°44' E 023°38'918.3
2017-Oct-15 03:31N 59°41' E 023°20'918.3
2017-Oct-15 03:01N 59°39' E 023°03'918.2
2017-Oct-15 02:30N 59°37' E 022°45'1118.2
2017-Oct-15 01:54N 59°35' E 022°24'718.2
2017-Oct-15 01:30N 59°34' E 022°09'918.2
2017-Oct-15 01:00N 59°32' E 021°52'917.8
2017-Oct-15 00:30N 59°33' E 021°35'918.2
2017-Oct-15 00:00N 59°35' E 021°17'1018.2
2017-Oct-14 23:28N 59°37' E 020°58'4213.7
2017-Oct-14 20:23N 60°05' E 019°56'615.6
2017-Oct-14 20:00N 59°60' E 019°49'917.8
2017-Oct-14 19:29N 59°53' E 019°36'917.8
2017-Oct-14 19:00N 59°47' E 019°24'917.4
2017-Oct-14 18:30N 59°44' E 019°09'815.6
2017-Oct-14 18:00N 59°39' E 018°55'611.0
2017-Oct-14 17:30N 59°36' E 018°47'811.3
2017-Oct-14 16:50N 59°32' E 018°34'410.1
2017-Oct-14 16:25N 59°30' E 018°28'510.8
2017-Oct-14 16:00N 59°25' E 018°24'4 7.2
2017-Oct-14 15:30N 59°22' E 018°24'510.7
2017-Oct-14 15:00N 59°21' E 018°14'4 8.8
2017-Oct-14 14:30N 59°19' E 018°06'0 0.0
2017-Oct-14 14:00N 59°19' E 018°06'0 0.0
2017-Oct-14 13:30N 59°19' E 018°06'0 0.0
2017-Oct-14 13:00N 59°19' E 018°06'0 0.0
2017-Oct-14 12:30N 59°19' E 018°06'0 0.0
2017-Oct-14 12:00N 59°19' E 018°06'0 0.0
2017-Oct-14 11:30N 59°19' E 018°06'0 0.0
2017-Oct-14 11:00N 59°19' E 018°06'0 0.0
2017-Oct-14 10:30N 59°19' E 018°06'0 0.0
2017-Oct-14 10:00N 59°19' E 018°06'0 0.0
2017-Oct-14 09:30N 59°19' E 018°06'0 0.0
2017-Oct-14 08:57N 59°19' E 018°06'0 0.0
2017-Oct-14 08:30N 59°19' E 018°06'0 0.0
2017-Oct-14 08:00N 59°19' E 018°06'2 4.9
2017-Oct-14 07:30N 59°19' E 018°11'611.5
2017-Oct-14 07:00N 59°23' E 018°20'3 6.7
2017-Oct-14 06:30N 59°23' E 018°27'5 9.2
2017-Oct-14 06:00N 59°27' E 018°26'710.9
2017-Oct-14 05:24N 59°32' E 018°34'410.8
2017-Oct-14 05:00N 59°35' E 018°42'612.2
2017-Oct-14 04:30N 59°38' E 018°52'611.8
2017-Oct-14 04:00N 59°42' E 019°01'715.0
2017-Oct-14 03:30N 59°45' E 019°14'815.0
2017-Oct-14 03:00N 59°49' E 019°27'915.2
2017-Oct-14 02:25N 59°55' E 019°39'4511.1
2017-Oct-13 22:21N 59°38' E 021°02'617.2
2017-Oct-13 22:01N 59°36' E 021°13'917.2
2017-Oct-13 21:30N 59°34' E 021°30'1217.2
2017-Oct-13 20:48N 59°32' E 021°54'817.3
2017-Oct-13 20:19N 59°33' E 022°09'3117.2
2017-Oct-13 18:32N 59°40' E 023°09'117.2
2017-Oct-13 18:30N 59°40' E 023°10'917.3
2017-Oct-13 18:01N 59°42' E 023°26'917.2
2017-Oct-13 17:31N 59°44' E 023°43'917.2
2017-Oct-13 17:00N 59°47' E 023°59'1017.2
2017-Oct-13 16:26N 59°50' E 024°18'817.2
2017-Oct-13 15:57N 59°53' E 024°33'3 0.3
2017-Oct-13 05:26N 59°51' E 024°28'818.2
2017-Oct-13 05:00N 59°48' E 024°14'918.3
2017-Oct-13 04:31N 59°46' E 023°56'918.3
2017-Oct-13 04:00N 59°44' E 023°38'918.3
2017-Oct-13 03:31N 59°42' E 023°21'1018.3
2017-Oct-13 02:59N 59°40' E 023°02'2418.1
2017-Oct-13 01:40N 59°35' E 022°16'318.1
2017-Oct-13 01:30N 59°34' E 022°11'918.2
2017-Oct-13 01:00N 59°32' E 021°53'918.2
2017-Oct-13 00:31N 59°33' E 021°35'918.2
2017-Oct-13 00:00N 59°35' E 021°18'1018.2
2017-Oct-12 23:28N 59°37' E 020°59'4311.6
2017-Oct-12 19:45N 59°57' E 019°43'417.3
2017-Oct-12 19:29N 59°54' E 019°37'816.7
2017-Oct-12 19:00N 59°48' E 019°25'816.7
2017-Oct-12 18:30N 59°44' E 019°11'816.7
2017-Oct-12 18:00N 59°40' E 018°56'510.9
2017-Oct-12 17:30N 59°37' E 018°48'612.0
2017-Oct-12 17:00N 59°34' E 018°37'610.1
2017-Oct-12 16:22N 59°30' E 018°28'411.7
2017-Oct-12 16:00N 59°26' E 018°23'4 8.4
2017-Oct-12 15:29N 59°22' E 018°25'510.5
2017-Oct-12 15:00N 59°21' E 018°15'510.0
2017-Oct-12 14:30N 59°19' E 018°06'0 0.2
2017-Oct-12 14:00N 59°19' E 018°06'0 0.0
2017-Oct-12 13:30N 59°19' E 018°06'0 0.0
2017-Oct-12 12:57N 59°19' E 018°06'0 0.0
2017-Oct-12 12:27N 59°19' E 018°06'0 0.0
2017-Oct-12 12:01N 59°19' E 018°06'0 0.0
2017-Oct-12 11:31N 59°19' E 018°06'0 0.0
2017-Oct-12 11:01N 59°19' E 018°06'0 0.0
2017-Oct-12 10:31N 59°19' E 018°06'0 0.0
2017-Oct-12 10:00N 59°19' E 018°06'0 0.0
2017-Oct-12 09:30N 59°19' E 018°06'0 0.0
2017-Oct-12 09:01N 59°19' E 018°06'0 0.0
2017-Oct-12 08:30N 59°19' E 018°06'0 0.0
2017-Oct-12 08:00N 59°19' E 018°06'3 5.1
2017-Oct-12 07:31N 59°20' E 018°11'611.5
2017-Oct-12 07:00N 59°23' E 018°21'3 6.5
2017-Oct-12 06:30N 59°24' E 018°27'4 8.6
2017-Oct-12 06:00N 59°28' E 018°26'610.2
2017-Oct-12 05:26N 59°32' E 018°34'410.5
2017-Oct-12 05:00N 59°35' E 018°42'612.2
2017-Oct-12 04:30N 59°38' E 018°52'611.7
2017-Oct-12 04:00N 59°42' E 019°01'815.1
2017-Oct-12 03:30N 59°45' E 019°15'714.9
2017-Oct-12 03:00N 59°49' E 019°27'815.2
2017-Oct-12 02:30N 59°54' E 019°38'4710.9
2017-Oct-11 22:15N 59°38' E 021°04'417.1
2017-Oct-11 22:00N 59°37' E 021°13'917.1
2017-Oct-11 21:30N 59°35' E 021°29'917.1
2017-Oct-11 20:59N 59°34' E 021°47'1117.3
2017-Oct-11 20:23N 59°33' E 022°07'3217.3
2017-Oct-11 18:32N 59°40' E 023°09'017.2
2017-Oct-11 18:30N 59°40' E 023°10'917.3
2017-Oct-11 18:00N 59°42' E 023°27'917.3
2017-Oct-11 17:30N 59°44' E 023°43'917.3
2017-Oct-11 17:00N 59°47' E 023°60'83 4.9
2017-Oct-11 00:01N 59°35' E 021°16'918.4
2017-Oct-10 23:30N 59°37' E 020°58'4112.5
2017-Oct-10 20:12N 60°02' E 019°53'316.7
2017-Oct-10 19:59N 59°60' E 019°48'816.8
2017-Oct-10 19:30N 59°54' E 019°37'816.8
2017-Oct-10 19:00N 59°48' E 019°25'816.6
2017-Oct-10 18:31N 59°44' E 019°11'816.5
2017-Oct-10 18:00N 59°40' E 018°56'510.5
2017-Oct-10 17:30N 59°37' E 018°48'611.9
2017-Oct-10 17:00N 59°34' E 018°38'710.1
2017-Oct-10 16:20N 59°30' E 018°28'412.0
2017-Oct-10 16:00N 59°26' E 018°23'510.1
2017-Oct-10 15:30N 59°21' E 018°26'510.0
2017-Oct-10 15:00N 59°22' E 018°17'6 6.1
2017-Oct-10 14:00N 59°19' E 018°06'0 0.0
2017-Oct-10 13:30N 59°19' E 018°06'0 0.0
2017-Oct-10 13:00N 59°19' E 018°06'0 0.0
2017-Oct-10 12:27N 59°19' E 018°06'0 0.0
2017-Oct-10 12:00N 59°19' E 018°06'0 0.0
2017-Oct-10 11:18N 59°19' E 018°06'0 0.0
2017-Oct-10 11:00N 59°19' E 018°06'0 0.0
2017-Oct-10 10:30N 59°19' E 018°06'0 0.0
2017-Oct-10 10:00N 59°19' E 018°06'0 0.0
2017-Oct-10 09:30N 59°19' E 018°06'0 0.0
2017-Oct-10 08:57N 59°19' E 018°06'0 0.0
2017-Oct-10 08:30N 59°19' E 018°06'0 0.0
2017-Oct-10 08:01N 59°19' E 018°06'3 6.3
2017-Oct-10 07:31N 59°20' E 018°12'611.4
2017-Oct-10 07:00N 59°22' E 018°22'3 5.4
2017-Oct-10 06:30N 59°24' E 018°27'4 8.5
2017-Oct-10 06:00N 59°28' E 018°26'610.5
2017-Oct-10 05:24N 59°33' E 018°35'410.8
2017-Oct-10 05:01N 59°35' E 018°42'612.1
2017-Oct-10 04:31N 59°38' E 018°52'510.9
2017-Oct-10 04:00N 59°41' E 019°01'815.5
2017-Oct-10 03:31N 59°45' E 019°14'  

Dump ship's entire track history